sensor_id;sensor_type;location;lat;lon;timestamp;temperature;humidity
9965;DHT22;5023;53.554;9.964;2022-12-07T00:05:00;3.80;99.90
9965;DHT22;5023;53.554;9.964;2022-12-07T00:16:20;3.90;99.90
9965;DHT22;5023;53.554;9.964;2022-12-07T00:21:47;4.00;99.90
9965;DHT22;5023;53.554;9.964;2022-12-07T00:27:16;3.90;99.90
9965;DHT22;5023;53.554;9.964;2022-12-07T00:32:49;4.00;99.90
9965;DHT22;5023;53.554;9.964;2022-12-07T00:38:32;4.00;99.90
9965;DHT22;5023;53.554;9.964;2022-12-07T00:44:02;4.00;99.90
9965;DHT22;5023;53.554;9.964;2022-12-07T00:49:43;4.00;99.90
9965;DHT22;5023;53.554;9.964;2022-12-07T00:55:22;4.10;99.90
9965;DHT22;5023;53.554;9.964;2022-12-07T01:01:05;4.00;99.90
9965;DHT22;5023;53.554;9.964;2022-12-07T01:06:32;4.10;99.90
9965;DHT22;5023;53.554;9.964;2022-12-07T01:12:07;4.00;99.90
9965;DHT22;5023;53.554;9.964;2022-12-07T01:17:12;4.00;99.90
9965;DHT22;5023;53.554;9.964;2022-12-07T01:22:47;4.10;99.90
9965;DHT22;5023;53.554;9.964;2022-12-07T01:28:24;4.10;99.90
9965;DHT22;5023;53.554;9.964;2022-12-07T01:34:14;4.10;99.90
9965;DHT22;5023;53.554;9.964;2022-12-07T01:39:53;4.00;99.90
9965;DHT22;5023;53.554;9.964;2022-12-07T01:45:42;4.00;99.90
9965;DHT22;5023;53.554;9.964;2022-12-07T01:51:23;4.10;99.90
9965;DHT22;5023;53.554;9.964;2022-12-07T01:57:01;4.00;99.90
9965;DHT22;5023;53.554;9.964;2022-12-07T02:02:15;4.10;99.90
9965;DHT22;5023;53.554;9.964;2022-12-07T02:07:56;4.10;99.90
9965;DHT22;5023;53.554;9.964;2022-12-07T02:13:53;4.10;99.90
9965;DHT22;5023;53.554;9.964;2022-12-07T02:31:33;4.00;99.90
9965;DHT22;5023;53.554;9.964;2022-12-07T02:37:12;4.00;99.90
9965;DHT22;5023;53.554;9.964;2022-12-07T02:43:14;3.90;99.90
9965;DHT22;5023;53.554;9.964;2022-12-07T02:55:08;3.90;99.90
9965;DHT22;5023;53.554;9.964;2022-12-07T03:00:56;3.80;99.90
9965;DHT22;5023;53.554;9.964;2022-12-07T03:13:30;3.80;99.90
9965;DHT22;5023;53.554;9.964;2022-12-07T03:19:31;3.80;99.90
9965;DHT22;5023;53.554;9.964;2022-12-07T03:25:21;3.80;99.90
9965;DHT22;5023;53.554;9.964;2022-12-07T03:31:22;3.80;99.90
9965;DHT22;5023;53.554;9.964;2022-12-07T03:36:50;3.70;99.90
9965;DHT22;5023;53.554;9.964;2022-12-07T03:42:20;3.60;99.90
9965;DHT22;5023;53.554;9.964;2022-12-07T03:48:30;3.70;99.90
9965;DHT22;5023;53.554;9.964;2022-12-07T03:54:19;3.60;99.90
9965;DHT22;5023;53.554;9.964;2022-12-07T03:59:59;3.60;99.90
9965;DHT22;5023;53.554;9.964;2022-12-07T04:05:59;3.50;99.90
9965;DHT22;5023;53.554;9.964;2022-12-07T04:11:13;3.50;99.90
9965;DHT22;5023;53.554;9.964;2022-12-07T04:23:10;3.50;99.90
9965;DHT22;5023;53.554;9.964;2022-12-07T04:28:45;3.30;99.90
9965;DHT22;5023;53.554;9.964;2022-12-07T04:34:24;3.40;99.90
9965;DHT22;5023;53.554;9.964;2022-12-07T04:40:09;3.30;99.90
9965;DHT22;5023;53.554;9.964;2022-12-07T04:45:54;3.40;99.90
9965;DHT22;5023;53.554;9.964;2022-12-07T04:57:37;3.30;99.90
9965;DHT22;5023;53.554;9.964;2022-12-07T05:03:20;3.20;99.90
9965;DHT22;5023;53.554;9.964;2022-12-07T05:08:44;3.30;99.90
9965;DHT22;5023;53.554;9.964;2022-12-07T05:14:54;3.20;99.90
9965;DHT22;5023;53.554;9.964;2022-12-07T05:20:53;3.20;99.90
9965;DHT22;5023;53.554;9.964;2022-12-07T05:32:52;3.30;99.90
9965;DHT22;5023;53.554;9.964;2022-12-07T05:43:48;3.40;99.90
9965;DHT22;5023;53.554;9.964;2022-12-07T05:49:26;3.30;99.90
9965;DHT22;5023;53.554;9.964;2022-12-07T05:54:48;3.20;99.90
9965;DHT22;5023;53.554;9.964;2022-12-07T06:06:34;3.20;99.90
9965;DHT22;5023;53.554;9.964;2022-12-07T06:12:48;3.10;99.90
9965;DHT22;5023;53.554;9.964;2022-12-07T06:18:12;3.10;99.90
9965;DHT22;5023;53.554;9.964;2022-12-07T06:23:38;3.10;99.90
9965;DHT22;5023;53.554;9.964;2022-12-07T06:29:13;3.00;99.90
9965;DHT22;5023;53.554;9.964;2022-12-07T06:34:59;3.00;99.90
9965;DHT22;5023;53.554;9.964;2022-12-07T06:40:34;3.00;99.90
9965;DHT22;5023;53.554;9.964;2022-12-07T06:46:09;3.00;99.90
9965;DHT22;5023;53.554;9.964;2022-12-07T06:51:52;3.00;99.90
9965;DHT22;5023;53.554;9.964;2022-12-07T06:57:31;3.00;99.90
9965;DHT22;5023;53.554;9.964;2022-12-07T07:02:56;3.00;99.90
9965;DHT22;5023;53.554;9.964;2022-12-07T07:08:23;2.90;99.90
9965;DHT22;5023;53.554;9.964;2022-12-07T07:13:26;2.80;99.90
9965;DHT22;5023;53.554;9.964;2022-12-07T07:19:04;2.80;99.90
9965;DHT22;5023;53.554;9.964;2022-12-07T07:24:09;2.80;99.90
9965;DHT22;5023;53.554;9.964;2022-12-07T07:29:58;2.70;99.90
9965;DHT22;5023;53.554;9.964;2022-12-07T07:35:38;2.80;99.90
9965;DHT22;5023;53.554;9.964;2022-12-07T07:40:59;2.80;99.90
9965;DHT22;5023;53.554;9.964;2022-12-07T07:46:34;2.80;99.90
9965;DHT22;5023;53.554;9.964;2022-12-07T07:52:22;2.90;99.90
9965;DHT22;5023;53.554;9.964;2022-12-07T07:58:06;3.00;99.90
9965;DHT22;5023;53.554;9.964;2022-12-07T08:03:43;3.00;99.90
9965;DHT22;5023;53.554;9.964;2022-12-07T08:08:52;3.00;99.90
9965;DHT22;5023;53.554;9.964;2022-12-07T08:14:33;3.10;99.90
9965;DHT22;5023;53.554;9.964;2022-12-07T08:20:19;3.10;99.90
9965;DHT22;5023;53.554;9.964;2022-12-07T08:26:03;3.10;99.90
9965;DHT22;5023;53.554;9.964;2022-12-07T08:31:42;3.20;99.90
9965;DHT22;5023;53.554;9.964;2022-12-07T08:37:52;3.30;99.90
9965;DHT22;5023;53.554;9.964;2022-12-07T08:43:28;3.30;99.90
9965;DHT22;5023;53.554;9.964;2022-12-07T08:48:36;3.30;99.90
9965;DHT22;5023;53.554;9.964;2022-12-07T08:53:40;3.40;99.90
9965;DHT22;5023;53.554;9.964;2022-12-07T08:59:17;3.40;99.90
9965;DHT22;5023;53.554;9.964;2022-12-07T09:04:22;3.50;99.90
9965;DHT22;5023;53.554;9.964;2022-12-07T09:09:24;3.80;99.90
9965;DHT22;5023;53.554;9.964;2022-12-07T09:14:28;3.90;99.90
9965;DHT22;5023;53.554;9.964;2022-12-07T09:19:33;4.00;99.90
9965;DHT22;5023;53.554;9.964;2022-12-07T09:24:39;4.10;99.90
9965;DHT22;5023;53.554;9.964;2022-12-07T09:29:42;4.00;99.90
9965;DHT22;5023;53.554;9.964;2022-12-07T09:34:45;4.00;99.90
9965;DHT22;5023;53.554;9.964;2022-12-07T09:40:08;4.10;99.90
9965;DHT22;5023;53.554;9.964;2022-12-07T09:45:44;4.20;99.90
9965;DHT22;5023;53.554;9.964;2022-12-07T09:51:14;4.30;99.90
9965;DHT22;5023;53.554;9.964;2022-12-07T09:56:37;4.40;99.90
9965;DHT22;5023;53.554;9.964;2022-12-07T10:01:41;4.50;99.90
9965;DHT22;5023;53.554;9.964;2022-12-07T10:06:45;4.40;99.90
9965;DHT22;5023;53.554;9.964;2022-12-07T10:12:02;4.50;99.90
9965;DHT22;5023;53.554;9.964;2022-12-07T10:17:47;4.60;99.90
9965;DHT22;5023;53.554;9.964;2022-12-07T10:23:32;4.70;99.90
9965;DHT22;5023;53.554;9.964;2022-12-07T10:29:21;4.80;99.90
9965;DHT22;5023;53.554;9.964;2022-12-07T10:35:25;4.80;99.90
9965;DHT22;5023;53.554;9.964;2022-12-07T10:41:20;4.70;99.90
9965;DHT22;5023;53.554;9.964;2022-12-07T10:47:28;4.70;99.90
9965;DHT22;5023;53.554;9.964;2022-12-07T10:53:48;4.60;99.90
9965;DHT22;5023;53.554;9.964;2022-12-07T10:59:52;4.70;99.90
9965;DHT22;5023;53.554;9.964;2022-12-07T11:05:20;4.70;99.90
9965;DHT22;5023;53.554;9.964;2022-12-07T11:11:21;4.90;99.90
9965;DHT22;5023;53.554;9.964;2022-12-07T11:17:05;4.90;99.90
9965;DHT22;5023;53.554;9.964;2022-12-07T11:23:03;4.90;99.90
9965;DHT22;5023;53.554;9.964;2022-12-07T11:28:20;4.90;99.90
9965;DHT22;5023;53.554;9.964;2022-12-07T11:33:49;5.00;99.90
9965;DHT22;5023;53.554;9.964;2022-12-07T11:39:57;5.00;99.90
9965;DHT22;5023;53.554;9.964;2022-12-07T11:45:27;5.00;99.90
9965;DHT22;5023;53.554;9.964;2022-12-07T11:51:20;5.00;99.90
9965;DHT22;5023;53.554;9.964;2022-12-07T11:56:25;5.00;99.90
9965;DHT22;5023;53.554;9.964;2022-12-07T12:01:40;5.00;99.90
9965;DHT22;5023;53.554;9.964;2022-12-07T12:07:32;5.00;99.90
9965;DHT22;5023;53.554;9.964;2022-12-07T12:19:24;5.10;99.90
9965;DHT22;5023;53.554;9.964;2022-12-07T12:31:33;5.40;99.90
9965;DHT22;5023;53.554;9.964;2022-12-07T12:37:45;5.40;99.90
9965;DHT22;5023;53.554;9.964;2022-12-07T12:56:15;5.50;99.90
9965;DHT22;5023;53.554;9.964;2022-12-07T13:02:20;5.50;99.90
9965;DHT22;5023;53.554;9.964;2022-12-07T13:07:59;5.40;99.90
9965;DHT22;5023;53.554;9.964;2022-12-07T13:19:57;5.50;99.90
9965;DHT22;5023;53.554;9.964;2022-12-07T13:31:40;5.60;99.90
9965;DHT22;5023;53.554;9.964;2022-12-07T13:37:42;5.70;99.90
9965;DHT22;5023;53.554;9.964;2022-12-07T13:42:59;5.70;99.90
9965;DHT22;5023;53.554;9.964;2022-12-07T13:48:47;5.60;99.90
9965;DHT22;5023;53.554;9.964;2022-12-07T13:54:23;5.60;99.90
9965;DHT22;5023;53.554;9.964;2022-12-07T13:59:51;5.60;99.90
9965;DHT22;5023;53.554;9.964;2022-12-07T14:05:13;5.50;99.90
9965;DHT22;5023;53.554;9.964;2022-12-07T14:10:57;5.60;99.90
9965;DHT22;5023;53.554;9.964;2022-12-07T14:16:35;5.60;99.90
9965;DHT22;5023;53.554;9.964;2022-12-07T14:28:38;5.40;99.90
9965;DHT22;5023;53.554;9.964;2022-12-07T14:34:00;5.40;99.90
9965;DHT22;5023;53.554;9.964;2022-12-07T14:39:08;5.30;99.90
9965;DHT22;5023;53.554;9.964;2022-12-07T14:44:31;5.20;99.90
9965;DHT22;5023;53.554;9.964;2022-12-07T14:49:36;5.30;99.90
9965;DHT22;5023;53.554;9.964;2022-12-07T14:54:44;5.30;99.90
9965;DHT22;5023;53.554;9.964;2022-12-07T14:59:51;5.30;99.90
9965;DHT22;5023;53.554;9.964;2022-12-07T15:05:01;5.20;99.90
9965;DHT22;5023;53.554;9.964;2022-12-07T15:16:32;5.20;99.90
9965;DHT22;5023;53.554;9.964;2022-12-07T15:21:35;5.30;99.90
9965;DHT22;5023;53.554;9.964;2022-12-07T15:26:50;5.40;99.90
9965;DHT22;5023;53.554;9.964;2022-12-07T15:32:16;5.30;99.90
9965;DHT22;5023;53.554;9.964;2022-12-07T15:37:51;5.20;99.90
9965;DHT22;5023;53.554;9.964;2022-12-07T15:48:35;4.90;99.90
9965;DHT22;5023;53.554;9.964;2022-12-07T15:54:20;5.00;99.90
9965;DHT22;5023;53.554;9.964;2022-12-07T16:00:04;5.10;99.90
9965;DHT22;5023;53.554;9.964;2022-12-07T16:05:28;5.00;99.90
9965;DHT22;5023;53.554;9.964;2022-12-07T16:11:31;4.90;99.90
9965;DHT22;5023;53.554;9.964;2022-12-07T16:17:21;4.80;99.90
9965;DHT22;5023;53.554;9.964;2022-12-07T16:23:39;5.00;99.90
9965;DHT22;5023;53.554;9.964;2022-12-07T16:29:30;5.10;99.90
9965;DHT22;5023;53.554;9.964;2022-12-07T16:35:11;5.00;99.90
9965;DHT22;5023;53.554;9.964;2022-12-07T16:41:12;5.00;99.90
9965;DHT22;5023;53.554;9.964;2022-12-07T16:47:28;4.70;99.90
9965;DHT22;5023;53.554;9.964;2022-12-07T16:53:11;4.50;99.90
9965;DHT22;5023;53.554;9.964;2022-12-07T16:59:12;4.30;99.90
9965;DHT22;5023;53.554;9.964;2022-12-07T17:05:01;4.30;99.90
9965;DHT22;5023;53.554;9.964;2022-12-07T17:10:14;4.20;99.90
9965;DHT22;5023;53.554;9.964;2022-12-07T17:21:31;4.00;99.90
9965;DHT22;5023;53.554;9.964;2022-12-07T17:27:17;3.90;99.90
9965;DHT22;5023;53.554;9.964;2022-12-07T17:44:08;3.80;99.90
9965;DHT22;5023;53.554;9.964;2022-12-07T17:55:48;3.80;99.90
9965;DHT22;5023;53.554;9.964;2022-12-07T18:01:32;3.70;99.90
9965;DHT22;5023;53.554;9.964;2022-12-07T18:07:33;3.70;99.90
9965;DHT22;5023;53.554;9.964;2022-12-07T18:13:13;3.70;99.90
9965;DHT22;5023;53.554;9.964;2022-12-07T18:18:42;3.60;99.90
9965;DHT22;5023;53.554;9.964;2022-12-07T18:30:27;3.60;99.90
9965;DHT22;5023;53.554;9.964;2022-12-07T18:36:07;3.60;99.90
9965;DHT22;5023;53.554;9.964;2022-12-07T20:05:51;3.20;99.90
9965;DHT22;5023;53.554;9.964;2022-12-07T20:11:29;3.00;99.90
9965;DHT22;5023;53.554;9.964;2022-12-07T20:16:57;3.00;99.90
9965;DHT22;5023;53.554;9.964;2022-12-07T20:22:34;2.80;99.90
9965;DHT22;5023;53.554;9.964;2022-12-07T20:28:09;2.90;99.90
9965;DHT22;5023;53.554;9.964;2022-12-07T20:33:52;2.90;99.90
9965;DHT22;5023;53.554;9.964;2022-12-07T20:44:39;2.90;99.90
9965;DHT22;5023;53.554;9.964;2022-12-07T20:50:16;2.90;99.90
9965;DHT22;5023;53.554;9.964;2022-12-07T20:55:51;3.00;99.90
9965;DHT22;5023;53.554;9.964;2022-12-07T21:01:39;3.00;99.90
9965;DHT22;5023;53.554;9.964;2022-12-07T21:13:21;3.10;99.90
9965;DHT22;5023;53.554;9.964;2022-12-07T21:19:03;3.00;99.90
9965;DHT22;5023;53.554;9.964;2022-12-07T21:24:39;3.00;99.90
9965;DHT22;5023;53.554;9.964;2022-12-07T21:30:14;3.00;99.90
9965;DHT22;5023;53.554;9.964;2022-12-07T21:35:52;3.00;99.90
9965;DHT22;5023;53.554;9.964;2022-12-07T21:57:10;3.00;99.90
9965;DHT22;5023;53.554;9.964;2022-12-07T22:02:49;2.90;99.90
9965;DHT22;5023;53.554;9.964;2022-12-07T22:08:25;3.00;99.90
9965;DHT22;5023;53.554;9.964;2022-12-07T22:14:02;3.00;99.90
9965;DHT22;5023;53.554;9.964;2022-12-07T22:20:07;3.00;99.90
9965;DHT22;5023;53.554;9.964;2022-12-07T22:25:48;3.00;99.90
9965;DHT22;5023;53.554;9.964;2022-12-07T22:31:28;3.00;99.90
9965;DHT22;5023;53.554;9.964;2022-12-07T22:37:07;3.00;99.90
9965;DHT22;5023;53.554;9.964;2022-12-07T22:43:00;2.90;99.90
9965;DHT22;5023;53.554;9.964;2022-12-07T22:49:00;2.80;99.90
9965;DHT22;5023;53.554;9.964;2022-12-07T22:54:35;2.70;99.90
9965;DHT22;5023;53.554;9.964;2022-12-07T23:06:25;2.50;99.90
9965;DHT22;5023;53.554;9.964;2022-12-07T23:12:10;2.40;99.90
9965;DHT22;5023;53.554;9.964;2022-12-07T23:17:35;2.40;99.90
9965;DHT22;5023;53.554;9.964;2022-12-07T23:29:32;2.50;99.90
9965;DHT22;5023;53.554;9.964;2022-12-07T23:35:10;2.50;99.90
9965;DHT22;5023;53.554;9.964;2022-12-07T23:46:07;2.40;99.90
9965;DHT22;5023;53.554;9.964;2022-12-07T23:51:42;2.40;99.90
9965;DHT22;5023;53.554;9.964;2022-12-07T23:57:06;2.40;99.90
